createdAt,value
2022-11-12T00:00:08.196Z,8.07
2022-11-12T00:03:11.446Z,8.10
2022-11-12T00:05:58.070Z,8.11
2022-11-12T00:08:44.624Z,8.14
2022-11-12T00:11:31.252Z,8.16
2022-11-12T00:14:17.971Z,8.18
2022-11-12T00:17:04.594Z,8.22
2022-11-12T00:19:51.367Z,8.26
2022-11-12T00:22:38.159Z,8.32
2022-11-12T00:25:24.688Z,8.36
2022-11-12T00:28:11.405Z,8.38
2022-11-12T00:30:58.213Z,8.42
2022-11-12T00:33:45.000Z,8.44
2022-11-12T00:36:31.511Z,8.49
2022-11-12T00:39:18.425Z,8.53
2022-11-12T00:42:05.010Z,8.52
2022-11-12T00:44:51.740Z,8.51
2022-11-12T00:47:38.445Z,8.52
2022-11-12T00:50:25.647Z,8.55
2022-11-12T00:53:12.181Z,8.59
2022-11-12T00:56:07.173Z,8.64
2022-11-12T00:58:54.301Z,8.63
2022-11-12T01:01:41.829Z,8.64
2022-11-12T01:04:28.681Z,8.62
2022-11-12T01:07:16.053Z,8.58
2022-11-12T01:10:02.955Z,8.57
2022-11-12T01:12:49.437Z,8.58
2022-11-12T01:15:42.058Z,8.57
2022-11-12T01:18:28.683Z,8.56
2022-11-12T01:21:15.659Z,8.56
2022-11-12T01:24:02.438Z,8.54
2022-11-12T01:26:48.802Z,8.55
2022-11-12T01:29:35.597Z,8.59
2022-11-12T01:32:22.390Z,8.62
2022-11-12T01:35:09.159Z,8.61
2022-11-12T01:37:55.532Z,8.60
2022-11-12T01:40:42.232Z,8.59
2022-11-12T01:43:28.966Z,8.62
2022-11-12T01:46:27.885Z,8.62
2022-11-12T01:49:21.878Z,8.58
2022-11-12T01:52:24.069Z,8.56
2022-11-12T01:55:15.693Z,8.58
2022-11-12T01:58:10.306Z,8.58
2022-11-12T02:00:57.501Z,8.58
2022-11-12T02:03:44.117Z,8.58
2022-11-12T02:06:31.526Z,8.58
2022-11-12T02:09:18.358Z,8.59
2022-11-12T02:12:05.866Z,8.59
2022-11-12T02:14:52.711Z,8.58
2022-11-12T02:17:39.468Z,8.59
2022-11-12T02:20:26.285Z,8.60
2022-11-12T02:23:12.866Z,8.62
2022-11-12T02:26:01.031Z,8.60
2022-11-12T02:28:47.699Z,8.57
2022-11-12T02:31:35.031Z,8.55
2022-11-12T02:34:21.837Z,8.55
2022-11-12T02:37:08.546Z,8.52
2022-11-12T02:39:55.056Z,8.49
2022-11-12T02:42:41.803Z,8.46
2022-11-12T02:45:28.888Z,8.44
2022-11-12T02:48:19.218Z,8.42
2022-11-12T02:51:07.155Z,8.38
2022-11-12T02:53:53.794Z,8.33
2022-11-12T02:56:40.843Z,8.30
2022-11-12T02:59:27.728Z,8.25
2022-11-12T03:02:14.522Z,8.21
2022-11-12T03:05:01.690Z,8.16
2022-11-12T03:07:48.024Z,8.13
2022-11-12T03:10:38.277Z,8.08
2022-11-12T03:13:25.185Z,8.02
2022-11-12T03:16:12.101Z,7.97
2022-11-12T03:18:58.616Z,7.92
2022-11-12T03:21:45.202Z,7.86
2022-11-12T03:24:31.896Z,7.80
2022-11-12T03:27:18.638Z,7.72
2022-11-12T03:30:06.355Z,7.64
2022-11-12T03:32:53.177Z,7.56
2022-11-12T03:35:40.423Z,7.50
2022-11-12T03:38:27.163Z,7.43
2022-11-12T03:41:14.168Z,7.37
2022-11-12T03:44:00.962Z,7.32
2022-11-12T03:46:47.638Z,7.26
2022-11-12T03:49:34.048Z,7.22
2022-11-12T03:52:20.582Z,7.16
2022-11-12T03:55:07.768Z,7.12
2022-11-12T03:57:55.397Z,7.08
2022-11-12T04:00:42.397Z,7.05
2022-11-12T04:03:29.369Z,7.01
2022-11-12T04:06:34.281Z,6.95
2022-11-12T04:09:20.791Z,6.90
2022-11-12T04:12:27.402Z,6.87
2022-11-12T04:15:13.971Z,6.81
2022-11-12T04:18:18.792Z,6.76
2022-11-12T04:21:23.587Z,6.72
2022-11-12T04:24:30.283Z,6.68
2022-11-12T04:27:32.481Z,6.63
2022-11-12T04:30:19.525Z,6.61
2022-11-12T04:33:06.284Z,6.59
2022-11-12T04:35:52.818Z,6.55
2022-11-12T04:38:39.370Z,6.53
2022-11-12T04:41:44.236Z,6.47
2022-11-12T04:44:48.940Z,6.41
2022-11-12T04:47:41.109Z,6.35
2022-11-12T04:50:28.032Z,6.31
2022-11-12T04:53:14.537Z,6.26
2022-11-12T04:56:00.992Z,6.21
2022-11-12T04:58:47.436Z,6.19
2022-11-12T05:01:34.335Z,6.18
2022-11-12T05:04:22.083Z,6.16
2022-11-12T05:07:08.839Z,6.12
2022-11-12T05:09:55.274Z,6.09
2022-11-12T05:12:43.952Z,6.04
2022-11-12T05:15:30.438Z,5.98
2022-11-12T05:18:17.187Z,5.92
2022-11-12T05:21:24.217Z,5.86
2022-11-12T05:24:27.390Z,5.80
2022-11-12T05:27:20.910Z,5.75
2022-11-12T05:30:08.374Z,5.72
2022-11-12T05:32:54.919Z,5.71
2022-11-12T05:35:41.585Z,5.71
2022-11-12T05:38:28.475Z,5.70
2022-11-12T05:41:19.886Z,5.67
2022-11-12T05:44:06.841Z,5.63
2022-11-12T05:46:53.650Z,5.61
2022-11-12T05:49:40.226Z,5.60
2022-11-12T05:52:26.698Z,5.59
2022-11-12T05:55:13.454Z,5.60
2022-11-12T05:58:06.090Z,5.60
2022-11-12T06:00:52.814Z,5.59
2022-11-12T06:03:39.556Z,5.59
2022-11-12T06:06:26.140Z,5.59
2022-11-12T06:09:12.882Z,5.59
2022-11-12T06:11:59.614Z,5.60
2022-11-12T06:14:46.267Z,5.62
2022-11-12T06:17:33.013Z,5.63
2022-11-12T06:20:20.683Z,5.65
2022-11-12T06:23:07.216Z,5.68
2022-11-12T06:25:53.878Z,5.71
2022-11-12T06:28:40.643Z,5.73
2022-11-12T06:31:27.102Z,5.75
2022-11-12T06:34:13.830Z,5.81
2022-11-12T06:37:00.408Z,5.87
2022-11-12T06:39:46.796Z,5.93
2022-11-12T06:42:33.506Z,5.99
2022-11-12T06:45:19.869Z,6.05
2022-11-12T06:48:06.656Z,6.11
2022-11-12T06:50:53.428Z,6.18
2022-11-12T06:53:39.875Z,6.24
2022-11-12T06:56:26.387Z,6.29
2022-11-12T06:59:12.987Z,6.35
2022-11-12T07:01:59.333Z,6.43
2022-11-12T07:04:45.979Z,6.50
2022-11-12T07:07:32.660Z,6.59
2022-11-12T07:10:19.325Z,6.75
2022-11-12T07:13:06.002Z,6.84
2022-11-12T07:15:52.847Z,6.92
2022-11-12T07:18:40.116Z,7.00
2022-11-12T07:21:26.675Z,7.09
2022-11-12T07:24:13.431Z,7.19
2022-11-12T07:27:00.057Z,7.29
2022-11-12T07:29:48.458Z,7.39
2022-11-12T07:32:40.244Z,7.47
2022-11-12T07:35:29.879Z,7.53
2022-11-12T07:38:16.622Z,7.61
2022-11-12T07:41:16.335Z,7.69
2022-11-12T07:44:02.753Z,7.77
2022-11-12T07:46:49.439Z,7.83
2022-11-12T07:49:36.046Z,7.88
2022-11-12T07:52:23.623Z,7.95
2022-11-12T07:55:10.289Z,8.02
2022-11-12T07:58:00.103Z,8.10
2022-11-12T08:00:46.776Z,8.16
2022-11-12T08:03:33.545Z,8.21
2022-11-12T08:06:20.341Z,8.28
2022-11-12T08:09:08.646Z,8.35
2022-11-12T08:11:55.465Z,8.40
2022-11-12T08:14:42.263Z,8.46
2022-11-12T08:17:29.001Z,8.54
2022-11-12T08:20:15.535Z,8.60
2022-11-12T08:23:02.134Z,8.64
2022-11-12T08:25:48.717Z,8.66
2022-11-12T08:28:36.990Z,8.68
2022-11-12T08:31:23.598Z,8.69
2022-11-12T08:34:12.879Z,8.73
2022-11-12T08:37:00.659Z,8.75
2022-11-12T08:39:47.652Z,8.78
2022-11-12T08:42:34.476Z,8.84
2022-11-12T08:45:21.243Z,8.88
2022-11-12T08:48:11.297Z,8.92
2022-11-12T08:50:58.536Z,8.96
2022-11-12T08:53:44.984Z,9.02
2022-11-12T08:56:31.944Z,9.07
2022-11-12T08:59:18.595Z,9.10
2022-11-12T09:02:06.192Z,9.14
2022-11-12T09:04:52.587Z,9.15
2022-11-12T09:07:54.863Z,9.17
2022-11-12T09:10:41.994Z,9.19
2022-11-12T09:13:28.457Z,9.17
2022-11-12T09:16:15.635Z,9.11
2022-11-12T09:19:02.394Z,9.10
2022-11-12T09:21:49.074Z,9.07
2022-11-12T09:24:36.006Z,9.03
2022-11-12T09:27:22.538Z,9.01
2022-11-12T09:30:09.635Z,8.99
2022-11-12T09:32:59.209Z,8.97
2022-11-12T09:35:47.055Z,8.97
2022-11-12T09:38:33.873Z,8.96
2022-11-12T09:41:28.662Z,8.93
2022-11-12T09:44:24.347Z,8.92
2022-11-12T09:47:27.778Z,8.90
2022-11-12T09:50:38.922Z,8.89
2022-11-12T09:53:47.467Z,8.88
2022-11-12T09:56:34.130Z,8.86
2022-11-12T09:59:22.823Z,8.85
2022-11-12T10:02:18.343Z,8.84
2022-11-12T10:05:10.974Z,8.81
2022-11-12T10:08:52.854Z,8.79
2022-11-12T10:12:19.895Z,8.78
2022-11-12T10:16:05.341Z,8.86
2022-11-12T10:19:09.814Z,8.87
2022-11-12T10:22:17.032Z,8.89
2022-11-12T10:25:17.174Z,8.92
2022-11-12T10:28:27.914Z,8.98
2022-11-12T10:31:19.142Z,9.03
2022-11-12T10:34:23.387Z,9.06
2022-11-12T10:37:43.704Z,9.13
2022-11-12T10:40:41.800Z,9.19
2022-11-12T10:43:28.391Z,9.21
2022-11-12T10:46:38.378Z,9.26
2022-11-12T10:49:25.489Z,9.29
2022-11-12T10:52:24.364Z,9.33
2022-11-12T10:55:21.140Z,9.39
2022-11-12T10:58:20.678Z,9.45
2022-11-12T11:01:17.735Z,9.46
2022-11-12T11:04:04.739Z,9.49
2022-11-12T11:07:24.583Z,9.53
2022-11-12T11:10:27.488Z,9.55
2022-11-12T11:13:23.028Z,9.60
2022-11-12T11:16:20.512Z,9.63
2022-11-12T11:19:09.678Z,9.64
2022-11-12T11:22:07.190Z,9.61
2022-11-12T11:25:22.197Z,9.58
2022-11-12T11:28:39.016Z,9.56
2022-11-12T11:32:13.586Z,9.56
2022-11-12T11:35:26.152Z,9.51
2022-11-12T11:38:55.906Z,9.50
2022-11-12T11:41:59.068Z,9.48
2022-11-12T11:45:06.058Z,9.44
2022-11-12T11:48:03.128Z,9.41
2022-11-12T11:51:15.902Z,9.38
2022-11-12T11:54:46.521Z,9.36
2022-11-12T11:57:44.763Z,9.33
2022-11-12T12:00:46.694Z,9.33
2022-11-12T12:03:54.676Z,9.33
2022-11-12T12:07:04.140Z,9.30
2022-11-12T12:10:20.298Z,9.27
2022-11-12T12:13:25.502Z,9.25
2022-11-12T12:16:46.284Z,9.26
2022-11-12T12:20:13.541Z,9.24
2022-11-12T12:23:11.351Z,9.21
2022-11-12T12:26:01.324Z,9.19
2022-11-12T12:29:07.865Z,9.17
2022-11-12T12:32:05.075Z,9.14
2022-11-12T12:35:03.650Z,9.12
2022-11-12T12:37:59.636Z,9.11
2022-11-12T12:40:55.116Z,9.19
2022-11-12T12:43:53.036Z,9.21
2022-11-12T12:46:50.078Z,9.25
2022-11-12T12:49:37.735Z,9.29
2022-11-12T12:52:24.579Z,9.31
2022-11-12T12:55:38.149Z,9.36
2022-11-12T12:58:47.098Z,9.41
2022-11-12T13:01:35.816Z,9.48
2022-11-12T13:04:56.746Z,9.52
2022-11-12T13:07:49.606Z,9.55
2022-11-12T13:10:39.116Z,9.59
2022-11-12T13:13:46.250Z,9.59
2022-11-12T13:16:53.566Z,9.61
2022-11-12T13:19:53.269Z,9.65
2022-11-12T13:22:39.921Z,9.69
2022-11-12T13:25:31.930Z,9.69
2022-11-12T13:28:18.757Z,9.69
2022-11-12T13:31:26.859Z,9.71
2022-11-12T13:34:31.059Z,9.69
2022-11-12T13:37:23.206Z,9.69
2022-11-12T13:40:14.974Z,9.69
2022-11-12T13:43:25.958Z,9.69
2022-11-12T13:46:31.683Z,9.69
2022-11-12T13:49:18.988Z,9.68
2022-11-12T13:52:06.479Z,9.65
2022-11-12T13:55:05.997Z,9.66
2022-11-12T13:57:56.478Z,9.64
2022-11-12T14:00:52.264Z,9.62
2022-11-12T14:03:47.163Z,9.61
2022-11-12T14:06:47.141Z,9.61
2022-11-12T14:10:28.194Z,9.59
2022-11-12T14:13:45.688Z,9.56
2022-11-12T14:16:50.492Z,9.54
2022-11-12T14:20:14.246Z,9.51
2022-11-12T14:23:24.776Z,9.43
2022-11-12T14:26:13.623Z,9.37
2022-11-12T14:29:00.478Z,9.33
2022-11-12T14:32:02.928Z,9.27
2022-11-12T14:34:49.358Z,9.19
2022-11-12T14:37:43.392Z,9.14
2022-11-12T14:40:34.238Z,9.06
2022-11-12T14:43:41.732Z,9.01
2022-11-12T14:46:30.926Z,8.95
2022-11-12T14:49:45.110Z,8.88
2022-11-12T14:52:40.202Z,8.82
2022-11-12T14:55:37.090Z,8.76
2022-11-12T14:58:24.945Z,8.69
2022-11-12T15:02:13.891Z,8.64
2022-11-12T15:04:45.916Z,8.57
2022-11-12T15:07:36.891Z,8.50
2022-11-12T15:10:39.040Z,8.44
2022-11-12T15:13:27.610Z,8.37
2022-11-12T15:16:35.159Z,8.31
2022-11-12T15:19:27.999Z,8.25
2022-11-12T15:22:22.904Z,8.18
2022-11-12T15:25:23.015Z,8.10
2022-11-12T15:28:24.695Z,8.03
2022-11-12T15:31:21.903Z,7.96
2022-11-12T15:34:39.456Z,7.89
2022-11-12T15:37:30.863Z,7.82
2022-11-12T15:40:20.583Z,7.76
2022-11-12T15:43:21.500Z,7.72
2022-11-12T15:46:14.419Z,7.65
2022-11-12T15:49:01.799Z,7.57
2022-11-12T15:51:48.513Z,7.51
2022-11-12T15:54:40.683Z,7.47
2022-11-12T15:57:31.759Z,7.42
2022-11-12T16:00:30.588Z,7.38
2022-11-12T16:03:22.096Z,7.35
2022-11-12T16:06:12.104Z,7.31
2022-11-12T16:08:58.597Z,7.28
2022-11-12T16:11:45.275Z,7.26
2022-11-12T16:14:31.981Z,7.21
2022-11-12T16:17:19.133Z,7.13
2022-11-12T16:20:13.465Z,7.07
2022-11-12T16:23:00.593Z,7.03
2022-11-12T16:25:47.081Z,6.97
2022-11-12T16:28:35.092Z,6.92
2022-11-12T16:31:21.992Z,6.88
2022-11-12T16:34:08.643Z,6.86
2022-11-12T16:36:56.081Z,6.82
2022-11-12T16:39:42.815Z,6.77
2022-11-12T16:42:29.382Z,6.74
2022-11-12T16:45:19.047Z,6.69
2022-11-12T16:48:15.332Z,6.65
2022-11-12T16:51:01.823Z,6.61
2022-11-12T16:53:49.156Z,6.58
2022-11-12T16:56:36.772Z,6.55
2022-11-12T16:59:23.351Z,6.52
2022-11-12T17:02:17.780Z,6.48
2022-11-12T17:05:08.192Z,6.44
2022-11-12T17:07:57.359Z,6.40
2022-11-12T17:10:43.779Z,6.36
2022-11-12T17:13:30.531Z,6.31
2022-11-12T17:16:17.044Z,6.25
2022-11-12T17:19:03.819Z,6.20
2022-11-12T17:21:50.685Z,6.14
2022-11-12T17:24:37.203Z,6.06
2022-11-12T17:27:23.709Z,6.00
2022-11-12T17:30:11.951Z,5.94
2022-11-12T17:33:00.295Z,5.91
2022-11-12T17:35:46.599Z,5.87
2022-11-12T17:38:33.481Z,5.83
2022-11-12T17:41:20.154Z,5.82
2022-11-12T17:44:07.588Z,5.82
2022-11-12T17:46:53.880Z,5.81
2022-11-12T17:49:40.726Z,5.80
2022-11-12T17:52:27.248Z,5.77
2022-11-12T17:55:14.297Z,5.76
2022-11-12T17:58:00.995Z,5.75
2022-11-12T18:00:47.604Z,5.79
2022-11-12T18:03:39.263Z,5.89
2022-11-12T18:06:32.548Z,5.89
2022-11-12T18:09:19.322Z,5.89
2022-11-12T18:12:06.689Z,5.92
2022-11-12T18:14:53.121Z,5.94
2022-11-12T18:17:39.742Z,5.96
2022-11-12T18:20:26.944Z,5.97
2022-11-12T18:23:13.243Z,5.96
2022-11-12T18:26:00.790Z,5.98
2022-11-12T18:28:55.207Z,5.99
2022-11-12T18:31:41.913Z,5.97
2022-11-12T18:34:28.660Z,5.98
2022-11-12T18:37:15.254Z,6.01
2022-11-12T18:40:01.993Z,6.07
2022-11-12T18:42:48.929Z,6.08
2022-11-12T18:45:35.680Z,6.08
2022-11-12T18:48:22.519Z,6.08
2022-11-12T18:51:13.084Z,6.09
2022-11-12T18:53:59.416Z,6.08
2022-11-12T18:56:46.077Z,6.06
2022-11-12T18:59:32.880Z,6.05
2022-11-12T19:02:19.679Z,6.01
2022-11-12T19:05:06.591Z,5.98
2022-11-12T19:07:53.568Z,5.92
2022-11-12T19:10:39.991Z,5.88
2022-11-12T19:13:27.077Z,5.87
2022-11-12T19:16:17.264Z,5.88
2022-11-12T19:19:04.268Z,5.91
2022-11-12T19:21:51.121Z,5.87
2022-11-12T19:24:37.660Z,5.88
2022-11-12T19:27:24.507Z,5.90
2022-11-12T19:30:12.207Z,5.88
2022-11-12T19:32:58.566Z,5.82
2022-11-12T19:35:45.097Z,5.77
2022-11-12T19:38:31.824Z,5.75
2022-11-12T19:41:20.056Z,5.73
2022-11-12T19:44:06.949Z,5.70
2022-11-12T19:46:53.429Z,5.69
2022-11-12T19:49:40.000Z,5.68
2022-11-12T19:52:26.640Z,5.62
2022-11-12T19:55:13.403Z,5.58
2022-11-12T19:58:01.052Z,5.54
2022-11-12T20:00:47.512Z,5.49
2022-11-12T20:03:34.747Z,5.48
2022-11-12T20:06:25.442Z,5.48
2022-11-12T20:09:12.333Z,5.43
2022-11-12T20:11:58.770Z,5.43
2022-11-12T20:14:45.464Z,5.41
2022-11-12T20:17:37.166Z,5.40
2022-11-12T20:20:23.437Z,5.35
2022-11-12T20:23:10.155Z,5.33
2022-11-12T20:26:06.139Z,5.31
2022-11-12T20:28:53.471Z,5.27
2022-11-12T20:31:41.929Z,5.24
2022-11-12T20:34:28.360Z,5.22
2022-11-12T20:37:14.956Z,5.18
2022-11-12T20:40:01.931Z,5.17
2022-11-12T20:42:48.380Z,5.21
2022-11-12T20:45:36.438Z,5.24
2022-11-12T20:48:24.140Z,5.21
2022-11-12T20:51:25.100Z,5.15
2022-11-12T20:54:12.393Z,5.12
2022-11-12T20:57:01.100Z,5.15
2022-11-12T20:59:51.246Z,5.15
2022-11-12T21:02:38.559Z,5.11
2022-11-12T21:05:25.470Z,5.07
2022-11-12T21:08:11.989Z,5.07
2022-11-12T21:11:02.425Z,5.05
2022-11-12T21:13:49.250Z,5.03
2022-11-12T21:16:35.680Z,5.03
2022-11-12T21:19:22.495Z,5.03
2022-11-12T21:22:09.212Z,5.00
2022-11-12T21:24:55.754Z,4.95
2022-11-12T21:27:42.630Z,4.91
2022-11-12T21:30:29.301Z,4.92
2022-11-12T21:33:15.673Z,4.89
2022-11-12T21:36:05.314Z,4.88
2022-11-12T21:38:51.928Z,4.84
2022-11-12T21:41:38.341Z,4.79
2022-11-12T21:44:25.024Z,4.75
2022-11-12T21:47:11.939Z,4.73
2022-11-12T21:49:58.749Z,4.70
2022-11-12T21:52:45.528Z,4.68
2022-11-12T21:55:32.221Z,4.69
2022-11-12T21:58:18.811Z,4.68
2022-11-12T22:01:25.867Z,4.68
2022-11-12T22:04:17.995Z,4.66
2022-11-12T22:07:05.324Z,4.65
2022-11-12T22:09:56.575Z,4.64
2022-11-12T22:13:04.868Z,4.61
2022-11-12T22:15:50.740Z,4.59
2022-11-12T22:18:38.472Z,4.58
2022-11-12T22:21:36.742Z,4.56
2022-11-12T22:24:24.865Z,4.52
2022-11-12T22:27:11.629Z,4.50
2022-11-12T22:29:58.399Z,4.49
2022-11-12T22:32:45.128Z,4.47
2022-11-12T22:35:32.759Z,4.43
2022-11-12T22:38:19.660Z,4.39
2022-11-12T22:41:09.366Z,4.38
2022-11-12T22:44:01.899Z,4.37
2022-11-12T22:46:48.606Z,4.35
2022-11-12T22:49:35.330Z,4.32
2022-11-12T22:52:22.023Z,4.31
2022-11-12T22:55:09.136Z,4.30
2022-11-12T22:57:55.672Z,4.29
2022-11-12T23:00:42.602Z,4.28
2022-11-12T23:03:31.969Z,4.29
2022-11-12T23:06:19.401Z,4.28
2022-11-12T23:09:06.085Z,4.25
2022-11-12T23:11:52.511Z,4.25
2022-11-12T23:14:39.012Z,4.23
2022-11-12T23:17:25.689Z,4.25
2022-11-12T23:20:13.028Z,4.25
2022-11-12T23:22:59.638Z,4.25
2022-11-12T23:25:46.385Z,4.24
2022-11-12T23:28:34.445Z,4.23
2022-11-12T23:31:24.912Z,4.21
2022-11-12T23:34:12.932Z,4.16
2022-11-12T23:36:59.407Z,4.13
2022-11-12T23:39:46.158Z,4.11
2022-11-12T23:42:32.920Z,4.09
2022-11-12T23:45:19.457Z,4.08
2022-11-12T23:48:06.283Z,4.06
2022-11-12T23:51:02.948Z,4.05
2022-11-12T23:53:49.968Z,4.02
2022-11-12T23:56:36.543Z,4.00
2022-11-12T23:59:23.059Z,3.99
